Time;durP1;ratioP1;P1;durP2;ratioP2;P2;SDS_P1;SDS_P2;PMS_P1;PMS_P2;Temp;Humidity;BMP_temperature;BMP_pressure;BME280_temperature;BME280_humidity;BME280_pressure;Samples;Min_cycle;Max_cycle;Signal;HPM_P1;HPM_P2
2023/06/30 00:00:54;;;;;;;1.80;1.55;;;15.40;99.90;;;;;;5005480;28;20137;-65
2023/06/30 00:03:22;;;;;;;4.10;1.70;;;15.40;99.90;;;;;;5016070;28;20046;-65
2023/06/30 00:05:48;;;;;;;10.77;1.90;;;15.40;99.90;;;;;;4992038;28;20196;-66
2023/06/30 00:08:15;;;;;;;7.78;2.22;;;15.30;99.90;;;;;;5026794;28;20045;-65
2023/06/30 00:10:42;;;;;;;5.28;1.45;;;15.20;99.90;;;;;;5025380;28;20077;-65
2023/06/30 00:13:08;;;;;;;8.30;1.45;;;15.20;99.90;;;;;;4993964;28;20433;-65
2023/06/30 00:15:33;;;;;;;12.73;2.65;;;15.20;99.90;;;;;;5025549;28;20051;-65
2023/06/30 00:18:01;;;;;;;4.18;1.50;;;15.10;99.90;;;;;;5026488;28;20045;-65
2023/06/30 00:20:27;;;;;;;5.40;1.50;;;15.10;99.90;;;;;;5025470;28;20038;-65
2023/06/30 00:22:52;;;;;;;11.82;1.70;;;15.10;99.90;;;;;;5026248;28;20056;-65
2023/06/30 00:25:18;;;;;;;12.32;1.60;;;15.00;99.90;;;;;;5026217;28;20065;-65
2023/06/30 00:27:44;;;;;;;7.35;1.65;;;15.00;99.90;;;;;;5004966;28;20056;-65
2023/06/30 00:30:10;;;;;;;6.07;1.83;;;14.90;99.90;;;;;;5026690;28;20387;-65
2023/06/30 00:32:36;;;;;;;5.47;1.42;;;14.90;99.90;;;;;;5013845;28;20046;-64
2023/06/30 00:35:03;;;;;;;5.60;1.40;;;14.80;99.90;;;;;;5006112;28;20379;-65
2023/06/30 00:37:29;;;;;;;3.38;1.30;;;14.70;99.90;;;;;;5025975;28;20045;-65
2023/06/30 00:39:56;;;;;;;8.05;1.35;;;14.70;99.90;;;;;;5026310;28;20045;-65
2023/06/30 00:42:21;;;;;;;3.80;1.50;;;14.70;99.90;;;;;;5026155;28;20403;-65
2023/06/30 00:44:47;;;;;;;4.18;1.25;;;14.70;99.90;;;;;;5025446;28;20053;-66
2023/06/30 00:47:13;;;;;;;5.18;1.35;;;14.60;99.90;;;;;;5028172;28;20065;-65
2023/06/30 00:49:40;;;;;;;7.63;2.33;;;14.60;99.90;;;;;;5028776;28;20061;-65
2023/06/30 00:52:06;;;;;;;4.05;1.27;;;14.60;99.90;;;;;;5028779;28;20049;-65
2023/06/30 00:54:32;;;;;;;6.65;1.30;;;14.50;99.90;;;;;;5028841;28;20047;-65
2023/06/30 00:56:58;;;;;;;6.25;1.75;;;14.50;99.90;;;;;;5030196;28;20289;-65
2023/06/30 00:59:24;;;;;;;6.25;1.60;;;14.40;99.90;;;;;;5004260;28;20081;-65
2023/06/30 01:02:03;;;;;;;8.35;1.83;;;14.40;99.90;;;;;;5029374;28;20092;-65
2023/06/30 01:04:39;;;;;;;10.67;2.10;;;14.30;99.90;;;;;;5029720;28;20181;-65
2023/06/30 01:07:23;;;;;;;10.82;2.05;;;14.40;99.90;;;;;;5028259;28;20280;-65
2023/06/30 01:09:54;;;;;;;10.88;1.45;;;14.30;99.90;;;;;;5019442;28;20046;-65
2023/06/30 01:12:20;;;;;;;9.75;1.98;;;14.20;99.90;;;;;;5028574;28;20107;-65
2023/06/30 01:14:47;;;;;;;5.82;1.50;;;14.20;99.90;;;;;;5029958;28;20077;-65
2023/06/30 01:17:16;;;;;;;8.27;1.42;;;14.20;99.90;;;;;;5028929;28;20053;-65
2023/06/30 01:19:44;;;;;;;6.47;1.80;;;14.20;99.90;;;;;;5028380;28;20052;-65
2023/06/30 01:22:33;;;;;;;3.60;1.23;;;14.20;99.90;;;;;;5008558;28;20057;-66
2023/06/30 01:25:05;;;;;;;11.30;2.05;;;14.10;99.90;;;;;;5015545;28;20045;-64
2023/06/30 01:27:31;;;;;;;7.63;1.70;;;14.00;99.90;;;;;;5008756;28;20046;-64
2023/06/30 01:29:57;;;;;;;4.70;1.58;;;14.00;99.90;;;;;;5010569;28;20045;-65
2023/06/30 01:32:23;;;;;;;5.80;1.20;;;14.00;99.90;;;;;;5007991;28;20143;-65
2023/06/30 01:34:50;;;;;;;7.90;1.85;;;14.00;99.90;;;;;;5028106;28;20080;-65
2023/06/30 01:37:21;;;;;;;8.00;1.60;;;14.00;99.90;;;;;;5027391;28;20076;-65
2023/06/30 01:39:47;;;;;;;7.72;1.33;;;14.00;99.90;;;;;;5029296;28;20061;-65
2023/06/30 01:42:14;;;;;;;6.65;1.63;;;13.90;99.90;;;;;;5027793;28;20085;-65
2023/06/30 01:44:40;;;;;;;9.15;1.52;;;14.00;99.90;;;;;;5011262;28;20537;-65
2023/06/30 01:47:09;;;;;;;7.13;1.70;;;13.90;99.90;;;;;;5007131;28;20045;-64
2023/06/30 01:49:35;;;;;;;5.07;1.90;;;13.90;99.90;;;;;;5022931;28;20049;-65
2023/06/30 01:52:02;;;;;;;4.68;1.58;;;13.90;99.90;;;;;;5028674;28;20037;-64
2023/06/30 01:54:27;;;;;;;4.82;1.30;;;13.80;99.90;;;;;;5028264;28;20038;-64
2023/06/30 01:56:54;;;;;;;5.82;1.40;;;13.80;99.90;;;;;;5029365;28;20049;-64
2023/06/30 01:59:20;;;;;;;5.88;1.50;;;13.80;99.90;;;;;;5027746;28;20125;-65
2023/06/30 02:01:47;;;;;;;4.40;1.38;;;13.80;99.90;;;;;;5028815;28;20128;-65
2023/06/30 02:04:12;;;;;;;7.57;2.15;;;13.70;99.90;;;;;;5027391;28;20049;-66
2023/06/30 02:06:39;;;;;;;5.18;1.67;;;13.70;99.90;;;;;;5029104;28;20047;-65
2023/06/30 02:09:05;;;;;;;3.50;1.63;;;13.70;99.90;;;;;;5007002;28;20488;-64
2023/06/30 02:11:31;;;;;;;4.10;1.50;;;13.70;99.90;;;;;;5016545;28;20033;-66
2023/06/30 02:13:56;;;;;;;7.68;1.73;;;13.70;99.90;;;;;;5010631;28;20450;-65
2023/06/30 02:16:22;;;;;;;10.38;1.80;;;13.70;99.90;;;;;;5027569;28;20041;-65
2023/06/30 02:18:51;;;;;;;6.75;2.00;;;13.60;99.90;;;;;;5029109;28;20068;-65
2023/06/30 02:21:17;;;;;;;11.07;2.23;;;13.60;99.90;;;;;;5026807;28;20041;-64
2023/06/30 02:23:42;;;;;;;6.03;1.50;;;13.60;99.90;;;;;;5028295;28;20053;-64
2023/06/30 02:26:09;;;;;;;8.02;1.90;;;13.60;99.90;;;;;;5027646;28;20060;-64
2023/06/30 02:28:35;;;;;;;2.58;1.35;;;13.60;99.90;;;;;;5027839;28;20411;-64
2023/06/30 02:31:01;;;;;;;7.82;1.77;;;13.60;99.90;;;;;;5027901;28;20053;-65
2023/06/30 02:33:27;;;;;;;7.18;1.75;;;13.50;99.90;;;;;;5026776;28;20061;-65
2023/06/30 02:35:52;;;;;;;7.38;1.70;;;13.60;99.90;;;;;;4994725;28;20076;-64
2023/06/30 02:38:18;;;;;;;6.85;1.73;;;13.50;99.90;;;;;;4988959;28;20396;-64
2023/06/30 02:40:44;;;;;;;6.40;1.42;;;13.50;99.90;;;;;;5019544;28;20058;-64
2023/06/30 02:43:10;;;;;;;9.05;1.83;;;13.50;99.90;;;;;;5008590;28;20053;-65
2023/06/30 02:45:36;;;;;;;6.75;1.30;;;13.50;99.90;;;;;;4994243;28;20128;-65
2023/06/30 02:48:02;;;;;;;5.15;1.70;;;13.40;99.90;;;;;;5027165;28;20054;-65
2023/06/30 02:50:29;;;;;;;6.25;1.80;;;13.40;99.90;;;;;;5009517;28;20060;-64
2023/06/30 02:52:59;;;;;;;5.13;1.30;;;13.40;99.90;;;;;;5028171;28;20136;-64
2023/06/30 02:55:25;;;;;;;7.18;1.63;;;13.40;99.90;;;;;;5005023;28;20052;-64
2023/06/30 02:57:51;;;;;;;5.32;1.88;;;13.40;99.90;;;;;;5020447;28;20045;-64
2023/06/30 03:00:18;;;;;;;7.68;1.80;;;13.30;99.90;;;;;;5026523;28;20398;-64
2023/06/30 03:02:43;;;;;;;10.05;1.88;;;13.30;99.90;;;;;;5027888;28;20510;-64
2023/06/30 03:05:09;;;;;;;12.55;1.67;;;13.30;99.90;;;;;;5008957;28;20091;-64
2023/06/30 03:07:36;;;;;;;3.70;1.38;;;13.30;99.90;;;;;;5027296;28;20045;-64
2023/06/30 03:10:03;;;;;;;5.57;1.40;;;13.30;99.90;;;;;;4999234;28;20396;-64
2023/06/30 03:12:28;;;;;;;4.43;1.73;;;13.30;99.90;;;;;;5004321;28;20424;-65
2023/06/30 03:14:54;;;;;;;9.85;1.60;;;13.20;99.90;;;;;;5027870;28;20033;-64
2023/06/30 03:17:20;;;;;;;5.80;1.52;;;13.30;99.90;;;;;;4988625;28;20085;-65
2023/06/30 03:19:46;;;;;;;6.78;1.70;;;13.20;99.90;;;;;;5027869;28;20061;-65
2023/06/30 03:22:11;;;;;;;8.25;1.77;;;13.20;99.90;;;;;;5026222;28;20158;-65
2023/06/30 03:24:38;;;;;;;5.03;1.55;;;13.20;99.90;;;;;;5027540;28;20052;-65
2023/06/30 03:27:05;;;;;;;2.97;1.08;;;13.20;99.90;;;;;;5027402;28;20053;-64
2023/06/30 03:29:30;;;;;;;5.15;1.40;;;13.20;99.90;;;;;;5025033;28;20407;-64
2023/06/30 03:31:56;;;;;;;7.00;1.52;;;13.20;99.90;;;;;;5027412;28;20037;-64
2023/06/30 03:34:22;;;;;;;5.78;1.38;;;13.10;99.90;;;;;;5005386;28;20053;-65
2023/06/30 03:36:49;;;;;;;7.50;1.70;;;13.20;99.90;;;;;;5006304;28;20058;-64
2023/06/30 03:39:15;;;;;;;6.90;1.30;;;13.10;99.90;;;;;;5027450;28;20065;-65
2023/06/30 03:41:41;;;;;;;9.00;1.65;;;13.10;99.90;;;;;;5027512;28;20060;-64
2023/06/30 03:44:07;;;;;;;6.60;1.50;;;13.10;99.90;;;;;;5026985;28;20049;-65
2023/06/30 03:46:37;;;;;;;6.63;1.47;;;13.10;99.90;;;;;;5026552;28;20040;-65
2023/06/30 03:49:03;;;;;;;2.53;1.10;;;13.10;99.90;;;;;;5027307;28;20060;-65
2023/06/30 03:51:28;;;;;;;6.20;1.85;;;13.10;99.90;;;;;;5005779;28;20271;-64
2023/06/30 03:53:54;;;;;;;6.95;1.58;;;13.10;99.90;;;;;;5027159;28;20131;-64
2023/06/30 03:56:20;;;;;;;7.85;1.70;;;13.10;99.90;;;;;;5007689;28;20041;-64
2023/06/30 03:58:46;;;;;;;6.03;1.55;;;13.00;99.90;;;;;;5026812;28;20137;-64
2023/06/30 04:01:11;;;;;;;6.32;1.67;;;13.10;99.90;;;;;;5024910;28;20136;-64
2023/06/30 04:03:38;;;;;;;4.85;1.30;;;13.10;99.90;;;;;;5009029;28;20045;-64
2023/06/30 04:06:03;;;;;;;5.93;1.33;;;13.10;99.90;;;;;;5006286;28;20145;-64
2023/06/30 04:08:30;;;;;;;7.82;1.33;;;13.00;99.90;;;;;;5023186;28;20136;-64
2023/06/30 04:10:55;;;;;;;6.07;1.48;;;13.00;99.90;;;;;;4999271;28;20496;-64
2023/06/30 04:13:21;;;;;;;3.30;1.05;;;13.00;99.90;;;;;;5007399;28;20061;-64
2023/06/30 04:15:47;;;;;;;7.43;1.58;;;13.00;99.90;;;;;;5026948;28;20045;-64
2023/06/30 04:18:13;;;;;;;8.60;2.10;;;13.00;99.90;;;;;;4991167;28;20052;-64
2023/06/30 04:20:38;;;;;;;7.85;1.25;;;13.10;99.90;;;;;;5007025;28;20137;-65
2023/06/30 04:23:04;;;;;;;6.82;1.40;;;13.10;99.90;;;;;;4995729;28;20491;-64
2023/06/30 04:25:30;;;;;;;6.32;1.30;;;13.00;99.90;;;;;;5008724;28;20120;-65
2023/06/30 04:27:56;;;;;;;8.90;1.30;;;13.10;99.90;;;;;;5028536;28;20033;-64
2023/06/30 04:30:22;;;;;;;6.18;1.25;;;13.00;99.90;;;;;;5028747;28;20033;-65
2023/06/30 04:32:47;;;;;;;4.95;1.35;;;13.10;99.90;;;;;;5013014;28;20496;-64
2023/06/30 04:35:17;;;;;;;10.20;2.13;;;13.10;99.90;;;;;;5029399;28;20045;-64
2023/06/30 04:37:44;;;;;;;6.55;1.00;;;13.10;99.90;;;;;;5013019;28;20431;-65
2023/06/30 04:40:09;;;;;;;7.53;1.25;;;13.20;99.90;;;;;;5029687;28;20056;-65
2023/06/30 04:42:36;;;;;;;4.22;1.23;;;13.20;99.90;;;;;;5029521;28;20432;-64
2023/06/30 04:45:03;;;;;;;11.27;1.67;;;13.30;99.90;;;;;;5030651;28;20040;-64
2023/06/30 04:47:29;;;;;;;5.57;1.48;;;13.30;99.90;;;;;;5028907;28;20050;-64
2023/06/30 04:49:55;;;;;;;4.97;1.20;;;13.30;99.90;;;;;;5011810;28;20477;-64
2023/06/30 04:52:21;;;;;;;9.93;1.65;;;13.40;99.90;;;;;;5010288;28;20700;-64
2023/06/30 04:54:47;;;;;;;7.05;1.65;;;13.40;99.90;;;;;;5030605;28;20049;-65
2023/06/30 04:57:12;;;;;;;7.70;1.08;;;13.50;99.90;;;;;;5028155;28;20042;-64
2023/06/30 04:59:38;;;;;;;4.75;1.50;;;13.60;99.90;;;;;;5029413;28;20103;-64
2023/06/30 05:02:05;;;;;;;7.70;1.35;;;13.60;99.90;;;;;;5029516;28;20053;-64
2023/06/30 05:04:31;;;;;;;6.70;1.42;;;13.70;99.90;;;;;;5011427;28;20057;-64
2023/06/30 05:06:57;;;;;;;5.80;1.45;;;13.80;99.90;;;;;;5011003;28;20045;-65
2023/06/30 05:09:23;;;;;;;7.20;1.77;;;13.80;99.90;;;;;;5005525;28;20095;-64
2023/06/30 05:11:49;;;;;;;6.45;1.27;;;13.90;99.90;;;;;;5021517;28;20045;-64
2023/06/30 05:14:16;;;;;;;3.90;1.45;;;14.10;99.90;;;;;;5028756;28;20156;-64
2023/06/30 05:16:42;;;;;;;14.32;2.13;;;14.20;99.90;;;;;;5008766;28;20176;-65
2023/06/30 05:19:07;;;;;;;10.18;1.70;;;14.40;99.90;;;;;;4976406;28;20065;-64
2023/06/30 05:21:34;;;;;;;4.93;1.55;;;14.50;99.90;;;;;;5028082;28;20042;-64
2023/06/30 05:23:59;;;;;;;6.13;1.40;;;14.50;99.90;;;;;;5029949;28;20499;-65
2023/06/30 05:26:25;;;;;;;5.85;1.48;;;14.60;99.90;;;;;;5010132;28;20084;-65
2023/06/30 05:28:51;;;;;;;6.57;1.15;;;14.70;99.90;;;;;;5029904;28;20049;-66
2023/06/30 05:31:16;;;;;;;6.90;2.05;;;14.70;99.90;;;;;;5026790;28;20049;-66
2023/06/30 05:33:42;;;;;;;5.28;1.40;;;14.90;99.90;;;;;;5010957;28;20444;-66
2023/06/30 05:36:08;;;;;;;8.82;1.70;;;14.90;99.90;;;;;;5028417;28;20444;-66
2023/06/30 05:38:34;;;;;;;15.10;1.85;;;15.00;99.90;;;;;;5029795;28;20385;-66
2023/06/30 05:40:59;;;;;;;7.93;1.42;;;15.00;99.90;;;;;;5029085;28;20065;-66
2023/06/30 05:43:25;;;;;;;4.43;1.63;;;15.10;99.90;;;;;;5046892;28;20041;-66
2023/06/30 05:45:52;;;;;;;3.22;1.75;;;15.10;99.90;;;;;;5045051;28;20122;-66
2023/06/30 05:48:17;;;;;;;7.63;1.35;;;15.20;99.90;;;;;;5047932;28;20907;-66
2023/06/30 05:50:45;;;;;;;3.65;1.40;;;15.20;99.90;;;;;;5048947;28;20200;-66
2023/06/30 05:53:11;;;;;;;5.35;1.48;;;15.30;99.90;;;;;;5029955;28;20057;-66
2023/06/30 05:55:37;;;;;;;5.75;1.80;;;15.30;99.90;;;;;;5048825;28;20037;-66
2023/06/30 05:58:02;;;;;;;7.72;1.30;;;15.40;99.90;;;;;;5027242;28;20046;-66
2023/06/30 06:00:30;;;;;;;4.82;1.65;;;15.40;99.90;;;;;;5029907;28;20068;-66
2023/06/30 06:02:56;;;;;;;8.80;1.65;;;15.50;99.90;;;;;;5014417;28;20114;-66
2023/06/30 06:05:21;;;;;;;5.20;1.20;;;15.60;99.90;;;;;;5047331;28;20437;-66
2023/06/30 06:07:48;;;;;;;8.73;1.80;;;15.70;99.90;;;;;;5043952;28;20678;-66
2023/06/30 06:10:14;;;;;;;5.35;1.33;;;15.80;99.90;;;;;;5007588;28;20045;-66
2023/06/30 06:12:40;;;;;;;3.78;1.20;;;15.90;99.90;;;;;;5026803;28;20052;-66
2023/06/30 06:15:07;;;;;;;5.53;1.20;;;16.00;99.90;;;;;;5047334;28;20037;-66
2023/06/30 06:17:33;;;;;;;12.85;1.33;;;16.00;99.90;;;;;;5037524;28;20523;-64
2023/06/30 06:19:59;;;;;;;4.68;1.15;;;16.00;99.90;;;;;;5026990;28;20051;-64
2023/06/30 06:22:25;;;;;;;4.40;2.67;;;16.10;99.90;;;;;;5041740;28;20526;-63
2023/06/30 06:24:50;;;;;;;1.55;0.80;;;16.20;99.90;;;;;;5030329;28;20052;-63
2023/06/30 06:27:16;;;;;;;1.75;1.23;;;16.20;99.90;;;;;;5028994;28;20079;-64
2023/06/30 06:29:42;;;;;;;3.08;1.50;;;16.30;99.90;;;;;;5047976;28;20159;-63
2023/06/30 06:32:08;;;;;;;3.45;1.60;;;16.40;99.90;;;;;;5012798;28;20045;-64
2023/06/30 06:34:34;;;;;;;9.98;2.08;;;16.40;99.90;;;;;;5030091;28;20043;-63
2023/06/30 06:37:01;;;;;;;2.55;1.13;;;16.50;99.90;;;;;;5044757;28;20057;-64
2023/06/30 06:39:26;;;;;;;4.53;1.67;;;16.50;99.90;;;;;;5029512;28;20527;-63
2023/06/30 06:41:52;;;;;;;2.38;1.17;;;16.50;99.90;;;;;;5025757;28;20049;-65
2023/06/30 06:44:18;;;;;;;6.07;1.23;;;16.60;99.90;;;;;;5024600;28;20038;-64
2023/06/30 06:46:44;;;;;;;2.10;1.10;;;16.60;99.90;;;;;;5027608;28;20405;-64
2023/06/30 06:49:10;;;;;;;3.42;0.80;;;16.70;99.90;;;;;;5024252;28;20099;-65
2023/06/30 06:51:36;;;;;;;6.30;1.23;;;16.80;99.90;;;;;;5020077;28;20041;-64
2023/06/30 06:54:02;;;;;;;3.08;1.23;;;16.80;99.90;;;;;;5003369;28;20113;-65
2023/06/30 06:56:28;;;;;;;1.95;1.10;;;16.90;99.90;;;;;;5028162;28;20616;-65
2023/06/30 06:58:54;;;;;;;6.50;1.75;;;17.00;99.90;;;;;;4986863;28;20096;-65
2023/06/30 07:01:20;;;;;;;2.05;1.17;;;17.10;99.90;;;;;;5021070;28;20429;-64
2023/06/30 07:03:46;;;;;;;3.80;0.90;;;17.10;99.90;;;;;;4978242;28;20090;-64
2023/06/30 07:06:12;;;;;;;4.18;0.80;;;17.20;99.90;;;;;;5007404;28;20446;-64
2023/06/30 07:08:39;;;;;;;3.85;0.55;;;17.20;99.70;;;;;;5026033;28;20650;-65
2023/06/30 07:11:10;;;;;;;4.90;1.05;;;17.30;99.90;;;;;;4975546;28;20041;-65
2023/06/30 07:13:38;;;;;;;0.73;0.73;;;17.30;99.30;;;;;;4975268;28;20199;-65
2023/06/30 07:16:04;;;;;;;7.25;0.82;;;17.30;97.20;;;;;;5024983;28;20408;-65
2023/06/30 07:18:29;;;;;;;2.28;0.70;;;17.30;97.50;;;;;;5008045;28;20050;-65
2023/06/30 07:20:55;;;;;;;1.35;0.93;;;17.30;98.60;;;;;;5015234;28;20447;-65
2023/06/30 07:23:21;;;;;;;1.83;0.55;;;17.40;98.40;;;;;;5026130;28;20052;-65
2023/06/30 07:25:48;;;;;;;6.30;1.17;;;17.50;95.40;;;;;;5005947;28;20049;-65
2023/06/30 07:28:14;;;;;;;5.13;1.00;;;17.70;99.90;;;;;;4997619;28;20057;-65
2023/06/30 07:30:41;;;;;;;3.38;1.00;;;17.80;99.90;;;;;;4999117;28;20050;-65
2023/06/30 07:33:06;;;;;;;1.50;0.85;;;17.80;99.90;;;;;;5012371;28;20102;-65
2023/06/30 07:35:33;;;;;;;3.00;1.30;;;17.70;92.50;;;;;;5003497;28;20049;-65
2023/06/30 07:37:59;;;;;;;1.35;0.80;;;17.70;94.10;;;;;;5018970;28;20065;-65
2023/06/30 07:40:25;;;;;;;1.95;0.60;;;17.70;92.60;;;;;;5018882;28;20053;-65
2023/06/30 07:42:53;;;;;;;1.90;1.00;;;17.60;93.20;;;;;;5040549;28;20075;-65
2023/06/30 07:45:19;;;;;;;1.15;0.77;;;17.60;93.10;;;;;;5026401;28;20036;-65
2023/06/30 07:47:48;;;;;;;1.05;0.68;;;17.60;90.10;;;;;;5014155;28;20408;-65
2023/06/30 07:50:15;;;;;;;3.75;0.80;;;17.70;90.30;;;;;;5033135;28;20076;-65
2023/06/30 07:52:48;;;;;;;1.48;0.60;;;17.80;90.90;;;;;;5003257;28;20102;-65
2023/06/30 07:55:16;;;;;;;3.08;0.73;;;18.00;91.60;;;;;;5026154;28;20040;-65
2023/06/30 07:57:42;;;;;;;3.38;0.73;;;18.20;82.10;;;;;;5025191;28;20495;-65
2023/06/30 08:00:10;;;;;;;1.20;0.60;;;18.20;73.10;;;;;;5044787;28;20053;-64
2023/06/30 08:02:37;;;;;;;1.33;0.60;;;18.10;77.40;;;;;;5009373;28;20057;-65
2023/06/30 08:05:03;;;;;;;1.55;0.80;;;18.10;84.40;;;;;;5044931;28;20044;-65
2023/06/30 08:07:30;;;;;;;0.68;0.68;;;18.10;79.60;;;;;;5044296;28;20041;-65
2023/06/30 08:09:56;;;;;;;1.15;0.50;;;18.10;70.90;;;;;;5019309;28;20057;-66
2023/06/30 08:12:22;;;;;;;1.55;0.70;;;18.10;68.20;;;;;;5042019;28;20052;-65
2023/06/30 08:14:48;;;;;;;2.45;0.98;;;18.50;69.40;;;;;;5045533;28;20052;-65
2023/06/30 08:17:17;;;;;;;5.95;0.70;;;19.00;68.00;;;;;;5047277;28;20048;-65
2023/06/30 08:19:43;;;;;;;1.65;0.45;;;19.40;65.00;;;;;;5027561;28;20617;-65
2023/06/30 08:22:20;;;;;;;4.07;0.88;;;19.50;51.00;;;;;;5028016;28;20136;-65
2023/06/30 08:24:45;;;;;;;2.90;0.60;;;19.40;58.20;;;;;;5024151;28;20061;-65
2023/06/30 08:27:11;;;;;;;3.85;0.98;;;19.20;41.80;;;;;;5038325;28;20044;-64
2023/06/30 08:29:37;;;;;;;3.63;0.82;;;18.80;47.10;;;;;;5046360;28;20041;-64
2023/06/30 08:32:04;;;;;;;2.30;0.85;;;18.40;57.30;;;;;;5045877;28;20073;-65
2023/06/30 08:34:29;;;;;;;2.97;1.00;;;18.30;63.80;;;;;;5046529;28;20525;-64
2023/06/30 08:36:56;;;;;;;1.67;0.80;;;18.20;65.10;;;;;;5024192;28;20049;-65
2023/06/30 08:39:29;;;;;;;2.38;1.13;;;18.10;68.30;;;;;;5004660;28;20046;-64
2023/06/30 08:41:55;;;;;;;2.30;0.43;;;18.30;75.20;;;;;;4994140;28;20136;-64
2023/06/30 08:44:25;;;;;;;8.43;0.98;;;18.60;66.20;;;;;;5009059;28;20132;-64
2023/06/30 08:46:56;;;;;;;1.80;0.70;;;18.80;67.70;;;;;;5016059;28;20121;-64
2023/06/30 08:49:23;;;;;;;2.03;0.80;;;18.80;65.60;;;;;;5018715;28;20135;-65
2023/06/30 08:51:56;;;;;;;4.03;0.80;;;18.60;46.90;;;;;;5005967;28;20404;-64
2023/06/30 08:54:23;;;;;;;3.88;1.05;;;18.30;48.40;;;;;;5016447;28;20054;-65
2023/06/30 08:56:49;;;;;;;2.00;1.00;;;18.10;42.10;;;;;;5008957;28;20490;-64
2023/06/30 08:59:15;;;;;;;5.68;0.73;;;18.20;51.80;;;;;;5025494;28;20128;-65
2023/06/30 09:01:42;;;;;;;2.70;0.68;;;18.40;59.00;;;;;;5026727;28;20175;-65
2023/06/30 09:04:09;;;;;;;3.38;1.00;;;18.60;46.50;;;;;;5007910;28;20045;-64
2023/06/30 09:06:37;;;;;;;2.95;0.82;;;18.90;33.70;;;;;;5025961;28;20125;-64
2023/06/30 09:09:07;;;;;;;0.82;0.60;;;19.20;18.40;;;;;;5009162;28;20044;-65
2023/06/30 09:11:34;;;;;;;1.85;0.75;;;19.50;19.10;;;;;;4997135;28;20057;-64
2023/06/30 09:14:02;;;;;;;0.68;0.60;;;19.70;3.90;;;;;;5024550;28;20488;-65
2023/06/30 09:16:32;;;;;;;1.88;0.80;;;19.90;1.00;;;;;;5028865;28;20037;-64
2023/06/30 09:18:58;;;;;;;3.03;0.40;;;20.10;4.70;;;;;;5024779;28;20038;-65
2023/06/30 09:21:23;;;;;;;4.03;0.55;;;20.20;1.00;;;;;;4998844;28;20117;-64
2023/06/30 09:23:53;;;;;;;0.63;0.45;;;20.30;1.00;;;;;;5001051;28;20123;-64
2023/06/30 09:26:19;;;;;;;1.13;0.47;;;20.50;1.00;;;;;;5028144;28;20495;-65
2023/06/30 09:28:45;;;;;;;1.02;0.68;;;20.70;1.00;;;;;;5010287;28;20048;-65
2023/06/30 09:31:12;;;;;;;1.95;0.50;;;20.80;1.00;;;;;;4993175;28;20084;-65
2023/06/30 09:33:39;;;;;;;7.70;0.90;;;20.50;1.00;;;;;;5026433;28;20484;-65
2023/06/30 09:36:06;;;;;;;0.93;0.60;;;20.20;1.00;;;;;;5027709;28;20178;-65
2023/06/30 09:38:34;;;;;;;2.50;0.50;;;20.10;1.00;;;;;;5026780;28;20040;-65
2023/06/30 09:41:04;;;;;;;1.05;0.60;;;20.20;1.00;;;;;;5029077;28;20065;-65
2023/06/30 09:43:31;;;;;;;2.95;0.50;;;20.30;1.00;;;;;;5027915;28;20049;-64
2023/06/30 09:45:59;;;;;;;2.78;1.73;;;20.40;1.00;;;;;;5026722;28;20462;-65
2023/06/30 09:48:35;;;;;;;4.43;0.88;;;20.50;1.00;;;;;;5029402;28;20042;-65
2023/06/30 09:51:01;;;;;;;4.43;0.60;;;20.70;1.00;;;;;;4989164;28;20053;-65
2023/06/30 09:53:35;;;;;;;7.82;0.63;;;20.60;1.00;;;;;;5029699;28;20490;-64
2023/06/30 09:56:02;;;;;;;4.13;0.70;;;20.30;1.00;;;;;;5019014;28;20079;-64
2023/06/30 09:58:27;;;;;;;0.63;0.50;;;20.10;1.00;;;;;;5028447;28;20045;-65
2023/06/30 10:00:53;;;;;;;0.95;0.50;;;19.80;1.00;;;;;;5029046;28;20045;-65
2023/06/30 10:03:19;;;;;;;3.72;0.77;;;19.60;1.00;;;;;;5026401;28;20212;-65
2023/06/30 10:05:48;;;;;;;1.95;0.40;;;19.40;1.00;;;;;;5029199;28;20045;-64
2023/06/30 10:08:14;;;;;;;4.00;0.68;;;19.20;1.00;;;;;;5023748;28;20046;-64
2023/06/30 10:10:42;;;;;;;0.82;0.60;;;19.00;1.00;;;;;;5014373;28;20168;-64
2023/06/30 10:13:09;;;;;;;3.03;0.80;;;18.90;1.00;;;;;;5018087;28;20073;-64
2023/06/30 10:15:36;;;;;;;1.17;0.57;;;18.80;1.00;;;;;;5013722;28;20395;-64
2023/06/30 10:18:04;;;;;;;2.47;0.90;;;18.80;1.70;;;;;;5019463;28;20049;-64
2023/06/30 10:20:29;;;;;;;6.93;0.95;;;18.70;3.10;;;;;;5026700;28;20065;-64
2023/06/30 10:23:00;;;;;;;3.03;0.73;;;18.70;1.00;;;;;;5007323;28;20045;-64
2023/06/30 10:25:28;;;;;;;3.13;0.68;;;19.00;1.00;;;;;;5009431;28;20099;-64
2023/06/30 10:27:54;;;;;;;2.00;0.45;;;19.20;1.00;;;;;;5028327;28;20096;-64
2023/06/30 10:30:21;;;;;;;6.55;0.60;;;19.30;1.00;;;;;;4999558;28;20083;-64
2023/06/30 10:32:47;;;;;;;3.53;0.80;;;19.40;1.00;;;;;;5024670;28;20041;-64
2023/06/30 10:35:15;;;;;;;3.25;0.50;;;19.30;1.00;;;;;;5024317;28;20045;-64
2023/06/30 10:37:41;;;;;;;1.35;0.52;;;19.30;1.00;;;;;;5003976;28;20068;-65
2023/06/30 10:40:08;;;;;;;2.00;0.43;;;19.30;1.00;;;;;;5013848;28;20041;-64
2023/06/30 10:42:37;;;;;;;1.92;0.60;;;19.20;1.00;;;;;;5042893;28;20600;-64
2023/06/30 10:45:04;;;;;;;3.10;0.70;;;19.30;1.00;;;;;;5041934;28;20501;-64
2023/06/30 10:47:38;;;;;;;0.70;0.30;;;19.40;2.60;;;;;;5039696;28;20045;-64
2023/06/30 10:50:14;;;;;;;2.13;0.90;;;19.50;1.00;;;;;;5037796;28;20403;-65
2023/06/30 10:52:48;;;;;;;1.02;0.50;;;19.50;1.00;;;;;;5021410;28;20061;-64
2023/06/30 10:55:14;;;;;;;0.98;0.60;;;19.50;1.00;;;;;;5030248;28;20029;-65
2023/06/30 10:57:40;;;;;;;1.02;0.52;;;19.50;1.00;;;;;;5004030;28;20511;-65
2023/06/30 11:00:07;;;;;;;1.65;0.50;;;19.40;1.00;;;;;;5027659;28;20052;-64
2023/06/30 11:02:37;;;;;;;2.97;1.05;;;19.40;1.00;;;;;;5029497;28;20047;-64
2023/06/30 11:05:21;;;;;;;1.77;0.50;;;19.50;1.00;;;;;;5046503;28;20069;-65
2023/06/30 11:08:03;;;;;;;2.25;0.95;;;19.80;1.00;;;;;;5029338;28;20169;-64
2023/06/30 11:10:32;;;;;;;1.05;0.70;;;20.10;1.00;;;;;;5014820;28;20049;-65
2023/06/30 11:13:09;;;;;;;1.00;0.80;;;20.40;1.00;;;;;;5031710;28;20564;-64
2023/06/30 11:15:45;;;;;;;4.93;0.70;;;20.60;1.00;;;;;;5009627;28;20307;-64
2023/06/30 11:18:20;;;;;;;4.60;0.77;;;20.60;1.00;;;;;;5032698;28;20085;-65
2023/06/30 11:21:03;;;;;;;1.50;0.60;;;20.40;1.00;;;;;;5045444;28;20048;-64
2023/06/30 11:23:36;;;;;;;1.13;0.52;;;20.30;1.00;;;;;;5046331;28;20389;-64
2023/06/30 11:26:13;;;;;;;2.63;0.93;;;20.20;1.00;;;;;;5028745;28;20453;-64
2023/06/30 11:28:44;;;;;;;2.97;0.60;;;20.30;1.00;;;;;;5029304;28;20399;-65
2023/06/30 11:31:11;;;;;;;3.60;0.70;;;20.40;1.00;;;;;;5045170;28;20041;-65
2023/06/30 11:33:42;;;;;;;1.75;0.50;;;20.30;1.00;;;;;;5046603;28;20052;-64
2023/06/30 11:36:18;;;;;;;3.50;1.13;;;20.20;1.00;;;;;;5047183;28;20052;-64
2023/06/30 11:38:49;;;;;;;5.03;0.95;;;20.10;1.00;;;;;;5045755;28;20051;-64
2023/06/30 11:41:20;;;;;;;4.03;0.70;;;19.80;1.00;;;;;;5028567;28;20115;-65
2023/06/30 11:43:56;;;;;;;2.55;0.75;;;19.90;1.00;;;;;;5046138;28;20490;-64
2023/06/30 11:46:23;;;;;;;1.38;0.60;;;19.80;1.00;;;;;;5046501;28;20137;-65
2023/06/30 11:48:49;;;;;;;2.05;0.57;;;19.70;1.90;;;;;;5047283;28;20077;-65
2023/06/30 11:51:17;;;;;;;1.48;0.65;;;19.70;3.60;;;;;;5045606;28;20052;-64
2023/06/30 11:53:45;;;;;;;1.77;0.43;;;19.60;6.30;;;;;;5046758;28;20040;-65
2023/06/30 11:56:11;;;;;;;1.93;0.57;;;19.40;9.10;;;;;;5045366;28;20041;-64
2023/06/30 11:58:42;;;;;;;2.92;1.02;;;19.20;4.40;;;;;;5028868;28;20291;-64
2023/06/30 12:01:08;;;;;;;1.63;0.40;;;19.20;14.60;;;;;;5045571;28;20507;-64
2023/06/30 12:03:34;;;;;;;1.95;0.65;;;19.40;3.10;;;;;;5011711;28;20048;-65
2023/06/30 12:06:01;;;;;;;3.17;0.60;;;19.50;1.00;;;;;;5028887;28;20091;-64
2023/06/30 12:08:28;;;;;;;2.75;0.40;;;19.60;4.30;;;;;;5045292;28;20101;-65
2023/06/30 12:10:55;;;;;;;4.07;0.70;;;19.80;1.00;;;;;;4997135;28;20048;-66
2023/06/30 12:13:27;;;;;;;4.43;0.70;;;19.90;1.00;;;;;;5027421;28;20053;-65
2023/06/30 12:15:57;;;;;;;2.15;0.60;;;20.00;1.00;;;;;;5029359;28;20029;-64
2023/06/30 12:18:37;;;;;;;1.15;0.63;;;20.10;1.00;;;;;;5045323;28;20102;-65
2023/06/30 12:21:14;;;;;;;2.22;0.65;;;20.10;1.00;;;;;;5028421;28;20057;-64
2023/06/30 12:23:41;;;;;;;2.60;0.60;;;19.90;1.00;;;;;;5009038;28;20061;-64
2023/06/30 12:26:07;;;;;;;1.75;0.60;;;19.90;1.00;;;;;;5042315;28;20124;-65
2023/06/30 12:28:33;;;;;;;3.28;0.75;;;20.20;2.30;;;;;;5046781;28;20482;-64
2023/06/30 12:30:59;;;;;;;1.58;0.60;;;20.40;2.50;;;;;;5027310;28;20140;-65
2023/06/30 12:33:24;;;;;;;2.55;0.80;;;20.60;1.00;;;;;;5028279;28;20045;-65
2023/06/30 12:35:50;;;;;;;1.05;0.55;;;20.80;1.00;;;;;;5046041;28;20048;-64
2023/06/30 12:38:18;;;;;;;1.88;0.70;;;21.00;1.00;;;;;;5045804;28;20140;-65
2023/06/30 12:40:44;;;;;;;1.48;0.77;;;21.20;1.00;;;;;;5028869;28;20061;-65
2023/06/30 12:43:10;;;;;;;2.63;0.75;;;21.30;1.00;;;;;;5048401;28;20102;-65
2023/06/30 12:45:35;;;;;;;1.55;0.80;;;21.30;1.00;;;;;;5029035;28;20048;-65
2023/06/30 12:48:02;;;;;;;4.07;0.77;;;21.30;1.00;;;;;;5043710;28;20045;-64